Saint-Jerome, Canada
Current Conditions -  °F | °C
As of 11:00 AM on Wednesday 26 Nov 2014 (Local Time) from CYMX Reporting Station
Overcast Overcast  
Wind Chill: -5°   Ceiling: 17000
Heat Index: -1°   Visibility: 45mi
Dew Point: -8°   Wind: 8mph
Humidity: 60%   Direction: 360°N
Pressure: 30.23"   Gusts: NA
Location:  45.77°N, 74°W
Report Text: CYMX 261600Z 36007KT 45SM FEW035 OVC170 M01/M08 A3023 RMK SC1AC7 SLP240
Loading
Personal Weather Stations






























Interactive Weather Map New forecast layout! Learn more

10-Day Weather Forecast

Advertisements
Track Severe Weather on mobile